Time;durP1;ratioP1;P1;durP2;ratioP2;P2;SDS_P1;SDS_P2;PMS_P1;PMS_P2;Temp;Humidity;BMP_temperature;BMP_pressure;BME280_temperature;BME280_humidity;BME280_pressure;Samples;Min_cycle;Max_cycle;Signal;HPM_P1;HPM_P2
2023/09/30 00:00:02;;;;;;;0.80;0.57;;;;;;;19.07;76.07;100293.25;331452;29;17288;-93
2023/09/30 00:00:15;;;;;;;0.60;0.50;;;;;;;19.10;75.85;100287.00;333365;29;5077;-93
2023/09/30 00:00:27;;;;;;;0.43;0.43;;;;;;;19.13;75.73;100292.91;328410;29;16911;-93
2023/09/30 00:00:39;;;;;;;0.65;0.57;;;;;;;19.15;75.42;100291.03;333381;29;4622;-93
2023/09/30 00:00:52;;;;;;;0.70;0.60;;;;;;;19.18;75.23;100289.19;331779;28;16279;-93
2023/09/30 00:01:10;;;;;;;0.55;0.52;;;;;;;19.13;75.59;100287.63;334357;29;4524;-92
2023/09/30 00:01:23;;;;;;;1.45;0.90;;;;;;;19.14;75.48;100294.63;327152;29;16178;-93
2023/09/30 00:01:35;;;;;;;1.75;1.15;;;;;;;19.15;75.28;100296.31;336002;29;4521;-94
2023/09/30 00:01:49;;;;;;;1.10;0.85;;;;;;;19.18;75.33;100294.47;331263;29;16438;-93
2023/09/30 00:02:01;;;;;;;0.77;0.50;;;;;;;19.17;75.29;100288.31;331156;29;4571;-93
2023/09/30 00:02:14;;;;;;;1.10;0.50;;;;;;;19.19;75.40;100296.13;332086;29;4512;-93
2023/09/30 00:02:26;;;;;;;1.50;0.52;;;;;;;19.21;75.22;100291.63;331483;29;4542;-95
2023/09/30 00:02:38;;;;;;;1.40;0.60;;;;;;;19.22;75.06;100295.97;330812;29;15531;-92
2023/09/30 00:02:51;;;;;;;0.98;0.60;;;;;;;19.23;74.94;100287.13;333205;29;4538;-93
2023/09/30 00:03:03;;;;;;;0.80;0.63;;;;;;;19.24;74.98;100292.31;325217;29;17686;-93
2023/09/30 00:03:15;;;;;;;0.95;0.60;;;;;;;19.28;74.77;100295.63;333108;29;4484;-93
2023/09/30 00:03:28;;;;;;;0.98;0.60;;;;;;;19.29;74.50;100287.59;329971;29;17275;-93
2023/09/30 00:03:40;;;;;;;1.00;0.70;;;;;;;19.27;74.51;100289.47;334659;29;4499;-92
2023/09/30 00:03:53;;;;;;;1.80;0.60;;;;;;;19.26;74.61;100293.06;331596;29;18826;-93
2023/09/30 00:04:07;;;;;;;1.73;0.70;;;;;;;19.25;74.68;100295.78;334275;29;4479;-93
2023/09/30 00:04:19;;;;;;;2.13;0.80;;;;;;;19.24;74.87;100294.09;326239;29;18941;-93
2023/09/30 00:04:31;;;;;;;1.33;0.60;;;;;;;19.24;74.67;100292.31;332250;29;4632;-92
2023/09/30 00:04:44;;;;;;;0.68;0.65;;;;;;;19.25;74.53;100295.78;330433;29;16913;-93
2023/09/30 00:04:56;;;;;;;1.05;0.80;;;;;;;19.25;74.59;100290.50;333365;29;4528;-94
2023/09/30 00:05:08;;;;;;;1.40;0.77;;;;;;;19.24;74.44;100294.09;332634;28;18374;-93
2023/09/30 00:05:20;;;;;;;1.40;0.73;;;;;;;19.24;74.56;100294.09;334187;29;4596;-93
2023/09/30 00:05:32;;;;;;;0.73;0.63;;;;;;;19.25;74.46;100293.16;330821;29;16044;-93
2023/09/30 00:05:44;;;;;;;1.27;0.60;;;;;;;19.23;74.69;100287.97;334831;29;4514;-93
2023/09/30 00:05:57;;;;;;;1.38;0.60;;;;;;;19.24;74.44;100288.81;333916;29;4528;-93
2023/09/30 00:06:09;;;;;;;2.50;0.68;;;;;;;19.25;74.33;100290.50;330142;29;18022;-93
2023/09/30 00:06:21;;;;;;;2.10;0.70;;;;;;;19.25;74.34;100293.16;334325;29;4498;-93
2023/09/30 00:06:33;;;;;;;1.98;0.80;;;;;;;19.23;74.35;100290.59;331627;29;4534;-93
2023/09/30 00:06:45;;;;;;;2.30;0.80;;;;;;;19.24;74.40;100294.09;333305;29;4604;-93
2023/09/30 00:06:57;;;;;;;2.20;0.90;;;;;;;19.21;74.49;100294.25;332165;29;4478;-92
2023/09/30 00:07:10;;;;;;;0.82;0.60;;;;;;;19.13;74.70;100290.28;330326;29;16929;-93
2023/09/30 00:07:22;;;;;;;0.80;0.52;;;;;;;19.13;74.80;100298.19;332087;29;4491;-92
2023/09/30 00:07:34;;;;;;;0.82;0.60;;;;;;;19.12;74.69;100295.66;327645;29;18096;-94
2023/09/30 00:07:46;;;;;;;1.00;0.60;;;;;;;19.13;74.62;100297.34;331583;29;4489;-93
2023/09/30 00:07:58;;;;;;;0.95;0.68;;;;;;;19.15;74.61;100291.03;330822;29;16193;-93
2023/09/30 00:08:11;;;;;;;0.70;0.60;;;;;;;19.14;74.55;100297.25;331938;29;4476;-93
2023/09/30 00:08:23;;;;;;;0.60;0.50;;;;;;;19.12;74.52;100291.22;331178;29;4574;-95
2023/09/30 00:08:35;;;;;;;0.65;0.50;;;;;;;19.09;74.77;100288.75;332418;29;17112;-93
2023/09/30 00:08:47;;;;;;;0.70;0.40;;;;;;;19.08;74.73;100292.34;334396;28;4782;-93
2023/09/30 00:08:59;;;;;;;1.40;0.50;;;;;;;19.09;74.69;100288.75;327542;29;17621;-93
2023/09/30 00:09:11;;;;;;;1.60;0.70;;;;;;;19.08;74.53;100283.59;330533;29;4819;-92
2023/09/30 00:09:24;;;;;;;1.20;0.70;;;;;;;19.11;74.55;100292.16;331890;29;4603;-93
2023/09/30 00:09:36;;;;;;;1.20;0.60;;;;;;;19.12;74.53;100285.97;327153;29;16914;-92
2023/09/30 00:09:49;;;;;;;4.38;0.70;;;;;;;19.14;74.54;100284.09;332176;29;4513;-93
2023/09/30 00:10:01;;;;;;;5.07;0.70;;;;;;;19.15;74.42;100291.03;329040;29;16328;-92
2023/09/30 00:10:14;;;;;;;4.18;0.50;;;;;;;19.19;74.53;100288.22;328392;29;4694;-92
2023/09/30 00:10:27;;;;;;;1.30;0.60;;;;;;;19.22;74.19;100293.34;331157;28;16567;-93
2023/09/30 00:10:39;;;;;;;2.00;0.60;;;;;;;19.23;74.29;100293.22;334616;28;4480;-95
2023/09/30 00:10:53;;;;;;;1.50;0.65;;;;;;;19.21;74.18;100292.47;330761;28;17109;-93
2023/09/30 00:11:05;;;;;;;1.20;0.60;;;;;;;19.23;74.24;100295.88;331309;29;4532;-93
2023/09/30 00:11:18;;;;;;;0.47;0.45;;;;;;;19.22;74.43;100291.53;335760;28;4533;-92
2023/09/30 00:11:30;;;;;;;0.50;0.50;;;;;;;19.22;74.24;100290.72;333013;28;16607;-93
2023/09/30 00:11:42;;;;;;;0.82;0.50;;;;;;;19.21;74.16;100294.25;336150;29;4551;-92
2023/09/30 00:11:55;;;;;;;1.10;0.60;;;;;;;19.16;74.72;100287.47;330857;28;4647;-92
2023/09/30 00:12:07;;;;;;;1.70;0.80;;;;;;;19.16;74.48;100292.75;334426;28;16624;-93
2023/09/30 00:12:19;;;;;;;1.50;0.77;;;;;;;19.16;74.55;100292.75;336004;28;4472;-94
2023/09/30 00:12:31;;;;;;;1.47;0.60;;;;;;;19.14;74.68;100289.34;330522;29;17836;-93
2023/09/30 00:12:44;;;;;;;1.30;0.60;;;;;;;19.15;74.46;100288.41;335000;29;4498;-92
2023/09/30 00:12:58;;;;;;;1.95;0.60;;;;;;;19.14;74.36;100286.72;329170;29;16440;-93
2023/09/30 00:13:10;;;;;;;2.08;0.60;;;;;;;19.16;74.41;100291.91;331265;29;15931;-92
2023/09/30 00:13:23;;;;;;;1.98;0.70;;;;;;;19.19;74.32;100296.97;325245;29;17677;-94
2023/09/30 00:13:35;;;;;;;1.50;0.60;;;;;;;19.21;74.31;100291.63;332060;29;4495;-93
2023/09/30 00:13:49;;;;;;;2.53;0.68;;;;;;;19.20;74.20;100293.41;329429;29;16729;-92
2023/09/30 00:14:01;;;;;;;1.90;0.60;;;;;;;19.21;74.44;100294.25;329234;29;4510;-95
2023/09/30 00:14:13;;;;;;;1.33;0.60;;;;;;;19.23;74.34;100284.47;331281;29;15679;-93
2023/09/30 00:14:25;;;;;;;0.60;0.60;;;;;;;19.24;74.18;100288.81;332068;29;4474;-93
2023/09/30 00:14:38;;;;;;;1.30;0.90;;;;;;;19.25;74.27;100291.34;328967;29;17269;-93
2023/09/30 00:14:50;;;;;;;1.38;1.00;;;;;;;19.27;74.06;100291.25;333069;29;4502;-92
2023/09/30 00:15:02;;;;;;;1.35;1.00;;;;;;;19.28;74.00;100291.19;332241;29;4963;-93
2023/09/30 00:15:14;;;;;;;1.25;0.70;;;;;;;19.29;73.68;100289.38;333203;29;4746;-93
2023/09/30 00:15:27;;;;;;;1.27;0.70;;;;;;;19.28;73.67;100287.72;331595;29;16643;-93
2023/09/30 00:15:40;;;;;;;1.05;0.70;;;;;;;19.29;73.89;100292.03;334334;29;4483;-93
2023/09/30 00:15:53;;;;;;;1.83;0.70;;;;;;;19.28;73.76;100288.56;331831;29;16472;-93
2023/09/30 00:16:05;;;;;;;2.22;0.65;;;;;;;19.28;73.53;100291.19;334588;29;4625;-92
2023/09/30 00:16:18;;;;;;;1.35;0.60;;;;;;;19.29;73.50;100284.13;330475;29;17006;-93
2023/09/30 00:16:30;;;;;;;0.85;0.52;;;;;;;19.30;73.48;100288.47;329413;29;17039;-92
2023/09/30 00:16:44;;;;;;;0.52;0.47;;;;;;;19.29;73.53;100286.75;325578;29;16404;-92
2023/09/30 00:16:56;;;;;;;1.52;0.60;;;;;;;19.29;73.50;100292.88;332335;29;4548;-92
2023/09/30 00:17:08;;;;;;;2.10;0.60;;;;;;;19.25;73.42;100285.25;330620;29;16844;-92
2023/09/30 00:17:20;;;;;;;1.77;0.50;;;;;;;19.24;73.59;100283.56;333254;29;4581;-93
2023/09/30 00:17:32;;;;;;;0.82;0.55;;;;;;;19.22;73.51;100290.72;332109;28;15894;-92
2023/09/30 00:17:45;;;;;;;0.70;0.57;;;;;;;19.24;73.67;100288.81;334527;28;4470;-92
2023/09/30 00:17:57;;;;;;;0.67;0.50;;;;;;;19.23;73.85;100287.97;332130;29;4948;-94
2023/09/30 00:18:09;;;;;;;0.70;0.52;;;;;;;19.24;73.85;100284.41;334553;29;4500;-93
2023/09/30 00:18:21;;;;;;;0.50;0.50;;;;;;;19.26;73.76;100292.22;334857;29;4478;-92
2023/09/30 00:18:33;;;;;;;0.65;0.40;;;;;;;19.27;73.95;100289.47;330984;29;16593;-92
2023/09/30 00:18:46;;;;;;;0.70;0.47;;;;;;;19.28;73.72;100287.72;335706;29;4472;-93
2023/09/30 00:18:58;;;;;;;0.70;0.50;;;;;;;19.28;73.88;100291.19;332338;28;16510;-95
2023/09/30 00:19:10;;;;;;;0.50;0.50;;;;;;;19.25;73.85;100291.34;336057;28;4531;-92
2023/09/30 00:19:23;;;;;;;0.60;0.50;;;;;;;19.24;73.69;100288.81;331530;29;4523;-94
2023/09/30 00:19:35;;;;;;;0.60;0.50;;;;;;;19.22;74.02;100290.72;334755;29;4486;-93
2023/09/30 00:19:47;;;;;;;1.10;0.50;;;;;;;19.24;73.65;100288.81;332849;29;4470;-92
2023/09/30 00:19:59;;;;;;;1.20;0.50;;;;;;;19.23;73.82;100285.31;330559;29;5929;-93
2023/09/30 00:20:11;;;;;;;0.75;0.50;;;;;;;19.25;73.57;100291.34;333202;29;4510;-93
2023/09/30 00:20:23;;;;;;;0.88;0.52;;;;;;;19.26;73.52;100286.94;330230;29;17144;-93
2023/09/30 00:20:35;;;;;;;1.60;0.55;;;;;;;19.26;73.44;100286.94;330153;29;4685;-93
2023/09/30 00:20:48;;;;;;;1.60;0.50;;;;;;;19.27;73.55;100286.84;334746;28;4554;-92
2023/09/30 00:21:00;;;;;;;1.23;0.47;;;;;;;19.28;73.41;100295.63;331772;28;18697;-92
2023/09/30 00:21:12;;;;;;;1.80;0.60;;;;;;;19.27;73.30;100289.47;335639;28;4521;-92
2023/09/30 00:21:24;;;;;;;1.70;0.60;;;;;;;19.29;73.30;100286.75;331478;28;16961;-92
2023/09/30 00:21:37;;;;;;;1.60;0.50;;;;;;;19.30;73.32;100288.47;334660;28;4509;-92
2023/09/30 00:21:49;;;;;;;1.23;0.50;;;;;;;19.27;73.13;100293.91;331528;28;15680;-93
2023/09/30 00:22:01;;;;;;;1.35;0.50;;;;;;;19.23;73.35;100287.13;334548;28;4523;-92
2023/09/30 00:22:13;;;;;;;1.15;0.60;;;;;;;19.23;73.28;100297.66;334160;29;4507;-92
2023/09/30 00:22:25;;;;;;;0.90;0.60;;;;;;;19.26;73.42;100297.50;330207;29;16726;-92
2023/09/30 00:22:38;;;;;;;0.50;0.50;;;;;;;19.27;73.25;100296.53;332636;29;4519;-93
2023/09/30 00:22:50;;;;;;;0.40;0.40;;;;;;;19.28;73.09;100296.47;332952;28;17511;-93
2023/09/30 00:23:02;;;;;;;0.43;0.43;;;;;;;19.28;73.25;100296.47;333216;29;4611;-93
2023/09/30 00:23:14;;;;;;;0.68;0.55;;;;;;;19.25;73.34;100293.16;330326;29;18782;-93
2023/09/30 00:23:26;;;;;;;1.10;0.60;;;;;;;19.21;73.28;100295.09;333063;29;4490;-93
2023/09/30 00:23:38;;;;;;;1.08;0.50;;;;;;;19.21;73.29;100296.91;333665;29;4673;-92
2023/09/30 00:23:50;;;;;;;0.50;0.50;;;;;;;19.19;73.32;100301.41;324298;29;16602;-92
2023/09/30 00:24:03;;;;;;;0.90;0.60;;;;;;;19.16;73.46;100297.19;331891;29;4617;-92
2023/09/30 00:24:15;;;;;;;0.82;0.57;;;;;;;19.14;73.57;100293.78;330881;29;6614;-94
2023/09/30 00:24:27;;;;;;;0.90;0.60;;;;;;;19.10;73.70;100287.84;331921;29;4489;-92
2023/09/30 00:24:39;;;;;;;0.68;0.52;;;;;;;19.06;74.02;100291.59;332153;29;4547;-93
2023/09/30 00:24:52;;;;;;;0.90;0.60;;;;;;;19.08;74.00;100299.41;329195;29;16344;-93
2023/09/30 00:25:04;;;;;;;0.95;0.60;;;;;;;19.04;74.16;100293.47;332028;29;5119;-93
2023/09/30 00:25:16;;;;;;;0.80;0.50;;;;;;;19.01;74.30;100290.97;330856;29;16481;-93
2023/09/30 00:25:28;;;;;;;0.60;0.45;;;;;;;19.02;74.17;100290.06;327394;29;4487;-93
2023/09/30 00:25:41;;;;;;;0.47;0.47;;;;;;;19.04;73.96;100290.81;331701;29;4491;-93
2023/09/30 00:25:53;;;;;;;1.00;0.60;;;;;;;19.06;73.82;100296.84;328181;29;18029;-92
2023/09/30 00:26:06;;;;;;;1.05;0.60;;;;;;;19.07;73.96;100295.91;330906;29;5175;-95
2023/09/30 00:26:18;;;;;;;1.05;0.68;;;;;;;19.06;74.00;100291.59;330487;29;16069;-93
2023/09/30 00:26:30;;;;;;;1.00;0.70;;;;;;;19.07;73.65;100298.53;332330;29;4527;-93
2023/09/30 00:26:42;;;;;;;0.80;0.60;;;;;;;19.06;73.92;100294.22;328770;29;17044;-95
2023/09/30 00:26:54;;;;;;;0.85;0.50;;;;;;;19.02;74.30;100294.50;332136;29;4482;-93
2023/09/30 00:27:06;;;;;;;1.00;0.57;;;;;;;19.02;74.24;100295.34;328497;29;4503;-93
2023/09/30 00:27:18;;;;;;;1.17;0.60;;;;;;;19.01;73.99;100292.78;330927;29;17108;-93
2023/09/30 00:27:30;;;;;;;0.95;0.65;;;;;;;19.02;74.21;100292.69;334700;29;4517;-92
2023/09/30 00:27:43;;;;;;;1.00;0.60;;;;;;;19.04;74.29;100290.81;328824;29;16712;-93
2023/09/30 00:27:55;;;;;;;1.08;0.63;;;;;;;19.00;74.41;100296.38;333708;29;4506;-92
2023/09/30 00:28:08;;;;;;;1.17;0.60;;;;;;;18.95;74.75;100292.22;332911;28;5075;-95
2023/09/30 00:28:20;;;;;;;1.27;0.70;;;;;;;18.97;74.71;100297.38;334741;28;4466;-93
2023/09/30 00:28:32;;;;;;;1.00;0.65;;;;;;;19.00;74.44;100291.94;337505;28;4488;-92
2023/09/30 00:28:44;;;;;;;0.90;0.70;;;;;;;19.03;74.46;100294.38;333901;28;4601;-92
2023/09/30 00:28:56;;;;;;;0.75;0.70;;;;;;;19.01;74.28;100290.97;337000;28;4638;-92
2023/09/30 00:29:10;;;;;;;0.68;0.68;;;;;;;19.02;74.25;100290.06;333284;29;17221;-93
2023/09/30 00:29:22;;;;;;;1.20;0.57;;;;;;;19.02;74.20;100284.78;333424;29;4508;-92
2023/09/30 00:29:35;;;;;;;1.20;0.50;;;;;;;19.05;74.17;100295.13;331155;29;17174;-92
2023/09/30 00:29:47;;;;;;;1.10;0.70;;;;;;;19.06;74.13;100290.75;333722;29;4555;-93
2023/09/30 00:29:59;;;;;;;1.10;0.60;;;;;;;19.03;74.42;100291.75;332087;28;6794;-92
2023/09/30 00:30:11;;;;;;;0.88;0.60;;;;;;;19.00;74.27;100285.81;334321;29;4490;-93
2023/09/30 00:30:24;;;;;;;0.98;0.60;;;;;;;19.02;74.30;100290.06;334657;29;4513;-94
2023/09/30 00:30:36;;;;;;;1.70;0.70;;;;;;;19.04;74.09;100288.19;332838;28;16743;-93
2023/09/30 00:30:49;;;;;;;1.50;0.70;;;;;;;19.06;74.24;100286.31;335869;28;4497;-92
2023/09/30 00:31:08;;;;;;;1.13;0.68;;;;;;;19.06;73.99;100288.94;329887;28;16320;-92
2023/09/30 00:31:22;;;;;;;1.25;0.68;;;;;;;19.04;74.01;100288.19;328952;29;17222;-92
2023/09/30 00:31:34;;;;;;;1.52;0.60;;;;;;;19.03;74.14;100286.47;326839;28;8111;-96
2023/09/30 00:31:46;;;;;;;2.20;0.60;;;;;;;19.03;74.19;100294.38;333100;29;4810;-93
2023/09/30 00:31:58;;;;;;;2.63;0.65;;;;;;;19.03;74.39;100289.09;331449;29;4563;-92
2023/09/30 00:32:10;;;;;;;1.85;0.70;;;;;;;19.02;74.52;100290.06;330617;29;4892;-93
2023/09/30 00:32:22;;;;;;;0.93;0.68;;;;;;;18.96;74.51;100287.78;333391;29;4507;-92
2023/09/30 00:32:34;;;;;;;0.85;0.70;;;;;;;18.94;74.47;100292.28;330262;29;16059;-93
2023/09/30 00:32:47;;;;;;;1.00;0.80;;;;;;;18.92;74.92;100288.91;332061;29;4513;-92
2023/09/30 00:32:59;;;;;;;0.80;0.77;;;;;;;18.93;74.59;100290.56;333819;29;4578;-92
2023/09/30 00:33:11;;;;;;;0.93;0.65;;;;;;;18.92;74.71;100288.91;319243;28;17857;-92
2023/09/30 00:33:23;;;;;;;1.40;0.60;;;;;;;18.91;74.83;100289.81;333137;29;4526;-95
2023/09/30 00:33:36;;;;;;;2.88;0.80;;;;;;;18.89;74.68;100287.25;330724;29;17162;-93
2023/09/30 00:33:48;;;;;;;2.70;0.73;;;;;;;18.87;74.72;100285.66;333577;29;5223;-92
2023/09/30 00:34:00;;;;;;;2.17;0.82;;;;;;;18.84;75.04;100285.84;330509;29;5801;-93
2023/09/30 00:34:13;;;;;;;0.88;0.60;;;;;;;18.84;74.95;100291.13;334786;28;4498;-93
2023/09/30 00:34:25;;;;;;;1.02;0.63;;;;;;;18.83;75.09;100290.25;334898;29;4507;-93
2023/09/30 00:34:37;;;;;;;0.98;0.55;;;;;;;18.76;75.42;100289.72;330922;29;18508;-92
2023/09/30 00:34:49;;;;;;;0.60;0.50;;;;;;;18.76;75.33;100297.63;333286;29;4533;-93
2023/09/30 00:35:02;;;;;;;0.50;0.50;;;;;;;18.74;75.40;100291.59;332189;29;5309;-94
2023/09/30 00:35:16;;;;;;;0.60;0.60;;;;;;;18.73;75.69;100289.03;333290;29;4780;-92
2023/09/30 00:35:28;;;;;;;0.80;0.65;;;;;;;18.74;75.62;100291.59;330468;29;17041;-94
2023/09/30 00:35:40;;;;;;;1.40;0.80;;;;;;;18.72;75.52;100287.34;331518;29;4556;-93
2023/09/30 00:35:52;;;;;;;1.75;0.82;;;;;;;18.74;75.49;100288.97;330327;29;17606;-92
2023/09/30 00:36:13;;;;;;;1.58;0.80;;;;;;;18.70;75.46;100290.06;333091;29;5275;-92
2023/09/30 00:36:25;;;;;;;0.60;0.60;;;;;;;18.64;75.77;100285.16;329993;29;16300;-92
2023/09/30 00:36:38;;;;;;;0.80;0.60;;;;;;;18.69;75.93;100296.28;329748;29;6528;-93
2023/09/30 00:36:50;;;;;;;1.83;0.63;;;;;;;18.70;75.74;100295.34;332308;29;4565;-92
2023/09/30 00:37:02;;;;;;;1.50;0.50;;;;;;;18.70;75.85;100290.06;328777;29;4597;-94
2023/09/30 00:37:14;;;;;;;1.10;0.50;;;;;;;18.74;75.75;100290.75;332290;29;4846;-93
2023/09/30 00:37:27;;;;;;;0.65;0.60;;;;;;;18.72;75.63;100296.09;331772;29;4517;-92
2023/09/30 00:37:39;;;;;;;1.25;0.70;;;;;;;18.75;75.70;100298.56;329728;29;17576;-93
2023/09/30 00:37:52;;;;;;;1.83;0.70;;;;;;;18.77;75.48;100296.72;334189;29;4503;-94
2023/09/30 00:38:04;;;;;;;1.60;0.68;;;;;;;18.79;75.55;100291.34;330477;29;4641;-93
2023/09/30 00:38:16;;;;;;;0.70;0.60;;;;;;;18.82;75.47;100295.63;336123;29;4671;-92
2023/09/30 00:38:28;;;;;;;1.33;0.50;;;;;;;18.84;75.65;100296.38;333633;29;4530;-95
2023/09/30 00:38:40;;;;;;;1.33;0.60;;;;;;;18.85;75.29;100301.53;335858;29;4636;-93
2023/09/30 00:38:52;;;;;;;1.38;0.60;;;;;;;18.85;75.36;100296.28;336127;28;4499;-92
2023/09/30 00:39:04;;;;;;;0.65;0.63;;;;;;;18.86;75.22;100291.88;332591;29;16901;-92
2023/09/30 00:39:17;;;;;;;1.05;0.70;;;;;;;18.89;75.48;100294.31;335307;29;4527;-93
2023/09/30 00:39:30;;;;;;;1.25;0.63;;;;;;;18.88;75.10;100298.75;332831;28;8690;-93
2023/09/30 00:39:44;;;;;;;2.75;0.50;;;;;;;18.88;75.44;100303.19;333864;29;17067;-93
2023/09/30 00:39:56;;;;;;;2.55;0.50;;;;;;;18.88;75.43;100301.38;332597;28;16447;-92
2023/09/30 00:40:11;;;;;;;1.70;0.50;;;;;;;18.88;75.19;100298.75;334677;29;4637;-92
2023/09/30 00:40:24;;;;;;;1.65;0.50;;;;;;;18.89;75.10;100295.16;330481;29;18520;-95
2023/09/30 00:40:38;;;;;;;0.80;0.63;;;;;;;18.91;75.13;100303.00;332059;29;4513;-94
2023/09/30 00:40:50;;;;;;;1.80;0.80;;;;;;;18.89;75.21;100296.97;327015;28;4533;-95
2023/09/30 00:41:03;;;;;;;1.70;0.70;;;;;;;18.90;75.27;100301.31;334731;29;4492;-92
2023/09/30 00:41:15;;;;;;;1.90;0.60;;;;;;;18.90;75.08;100303.94;328349;29;16716;-92
2023/09/30 00:41:27;;;;;;;1.40;0.57;;;;;;;18.88;75.41;100305.81;333048;29;4509;-92
2023/09/30 00:41:40;;;;;;;1.40;0.70;;;;;;;18.85;75.44;100298.06;330042;29;16887;-94
2023/09/30 00:41:52;;;;;;;1.25;0.80;;;;;;;18.85;75.40;100298.06;333214;29;4566;-93
2023/09/30 00:42:04;;;;;;;1.23;0.77;;;;;;;18.85;75.28;100298.06;333931;29;7217;-94
2023/09/30 00:42:16;;;;;;;0.70;0.60;;;;;;;18.85;75.32;100300.69;332088;29;16522;-92
2023/09/30 00:42:29;;;;;;;0.70;0.60;;;;;;;18.85;75.56;100303.34;336177;28;4504;-93
2023/09/30 00:42:41;;;;;;;1.00;0.57;;;;;;;18.86;75.55;100305.06;333172;28;10397;-92
2023/09/30 00:42:53;;;;;;;1.27;0.60;;;;;;;18.86;75.84;100305.06;332201;28;4732;-92
2023/09/30 00:43:06;;;;;;;2.00;0.80;;;;;;;18.85;75.42;100300.69;332860;29;5017;-94
2023/09/30 00:43:19;;;;;;;2.17;0.82;;;;;;;18.85;75.71;100298.91;330937;29;15868;-92
2023/09/30 00:43:32;;;;;;;1.45;0.65;;;;;;;18.87;75.62;100306.72;331692;28;17242;-93
2023/09/30 00:43:46;;;;;;;0.90;0.60;;;;;;;18.93;75.36;100301.13;334452;29;4497;-93
2023/09/30 00:43:58;;;;;;;0.80;0.60;;;;;;;18.94;75.29;100305.47;332197;29;16737;-93
2023/09/30 00:44:10;;;;;;;0.70;0.50;;;;;;;18.95;74.99;100301.88;334480;28;4487;-92
2023/09/30 00:44:23;;;;;;;0.90;0.50;;;;;;;18.94;75.00;100302.81;328970;28;4590;-93
2023/09/30 00:44:35;;;;;;;0.70;0.50;;;;;;;18.95;74.95;100299.25;334702;29;4505;-92
2023/09/30 00:44:47;;;;;;;1.50;0.75;;;;;;;18.95;74.78;100299.25;332596;29;4675;-95
2023/09/30 00:44:59;;;;;;;1.42;0.80;;;;;;;18.95;74.90;100299.25;331630;29;16448;-92
2023/09/30 00:45:12;;;;;;;1.67;0.82;;;;;;;18.95;74.96;100301.88;334673;29;4500;-92
2023/09/30 00:45:24;;;;;;;1.60;0.60;;;;;;;18.94;74.94;100300.19;329929;29;16536;-92
2023/09/30 00:45:38;;;;;;;1.50;0.60;;;;;;;18.95;75.14;100299.25;331994;29;4909;-92
2023/09/30 00:46:03;;;;;;;1.02;0.70;;;;;;;18.92;74.83;100304.69;329328;29;17600;-93
2023/09/30 00:46:27;;;;;;;1.45;0.88;;;;;;;18.88;75.09;100297.91;327743;29;16302;-92
2023/09/30 00:46:41;;;;;;;1.13;0.60;;;;;;;18.84;75.37;100302.50;329082;29;16112;-92
2023/09/30 00:46:57;;;;;;;0.82;0.50;;;;;;;18.83;75.00;100294.69;328238;29;17632;-92
2023/09/30 00:47:10;;;;;;;1.13;0.68;;;;;;;18.83;75.18;100300.78;329124;29;16604;-92
2023/09/30 00:47:23;;;;;;;1.13;0.73;;;;;;;18.80;75.74;100300.97;334689;29;4530;-93
2023/09/30 00:47:36;;;;;;;0.90;0.70;;;;;;;18.75;75.93;100303.84;327524;29;17959;-91
2023/09/30 00:47:49;;;;;;;0.95;0.70;;;;;;;18.71;76.06;100299.69;331930;29;4666;-95
2023/09/30 00:48:01;;;;;;;2.65;0.90;;;;;;;18.72;75.99;100304.00;332856;29;16026;-92
2023/09/30 00:48:13;;;;;;;3.15;1.00;;;;;;;18.73;75.79;100297.81;333354;29;4538;-92
2023/09/30 00:48:26;;;;;;;1.67;0.80;;;;;;;18.70;76.09;100299.75;331921;28;17626;-92
2023/09/30 00:48:39;;;;;;;1.00;0.60;;;;;;;18.64;76.20;100295.69;335631;29;4540;-92
2023/09/30 00:48:52;;;;;;;0.75;0.60;;;;;;;18.65;76.44;100300.03;331239;28;17749;-92
2023/09/30 00:49:05;;;;;;;0.70;0.70;;;;;;;18.65;76.31;100302.66;333106;28;4487;-95
2023/09/30 00:49:18;;;;;;;0.65;0.65;;;;;;;18.65;76.41;100299.16;330734;29;17145;-92
2023/09/30 00:49:31;;;;;;;0.68;0.65;;;;;;;18.66;76.37;100296.44;325880;29;4922;-93
2023/09/30 00:49:43;;;;;;;1.00;0.60;;;;;;;18.70;76.10;100303.25;333012;29;4525;-92
2023/09/30 00:49:55;;;;;;;1.02;0.63;;;;;;;18.69;76.04;100298.91;333161;28;5133;-93
2023/09/30 00:50:10;;;;;;;1.25;0.73;;;;;;;18.71;75.97;100302.31;332940;29;4509;-93
2023/09/30 00:50:22;;;;;;;0.90;0.65;;;;;;;18.69;76.21;100296.28;330353;29;16643;-93
2023/09/30 00:50:34;;;;;;;1.13;0.65;;;;;;;18.71;75.94;100307.59;333441;29;4597;-92
2023/09/30 00:50:47;;;;;;;1.00;0.70;;;;;;;18.67;76.17;100303.44;329780;29;17799;-93
2023/09/30 00:50:59;;;;;;;1.35;0.70;;;;;;;18.70;75.96;100300.59;334714;29;4550;-92
2023/09/30 00:51:11;;;;;;;2.58;0.70;;;;;;;18.70;75.93;100292.72;329899;29;4489;-94
2023/09/30 00:51:24;;;;;;;2.38;0.60;;;;;;;18.71;76.04;100298.81;334746;29;4467;-92
2023/09/30 00:51:36;;;;;;;1.00;0.60;;;;;;;18.68;76.04;100297.22;332259;29;4690;-94
2023/09/30 00:51:49;;;;;;;1.52;0.85;;;;;;;18.70;76.20;100302.41;332600;29;4750;-93
2023/09/30 00:52:02;;;;;;;1.70;0.88;;;;;;;18.68;76.21;100299.84;333302;29;17712;-92
2023/09/30 00:52:15;;;;;;;1.95;0.70;;;;;;;18.67;76.26;100300.78;331995;29;16446;-93
2023/09/30 00:52:27;;;;;;;2.03;0.60;;;;;;;18.67;76.14;100298.16;329190;28;4630;-95
2023/09/30 00:52:40;;;;;;;2.05;0.63;;;;;;;18.68;76.29;100304.28;330811;29;15784;-93
2023/09/30 00:52:53;;;;;;;1.48;0.60;;;;;;;18.65;76.30;100302.66;329802;29;16398;-93
2023/09/30 00:53:05;;;;;;;1.08;0.57;;;;;;;18.67;76.20;100300.78;331530;29;4547;-93
2023/09/30 00:53:17;;;;;;;0.63;0.50;;;;;;;18.68;76.18;100302.47;330977;29;4721;-95
2023/09/30 00:53:29;;;;;;;0.73;0.70;;;;;;;18.65;76.27;100301.78;332869;29;4513;-92
2023/09/30 00:53:42;;;;;;;1.00;0.90;;;;;;;18.67;76.08;100308.69;332966;29;4793;-92
2023/09/30 00:53:56;;;;;;;1.50;0.90;;;;;;;18.64;76.47;100305.38;330449;29;16642;-93
2023/09/30 00:54:09;;;;;;;1.38;0.70;;;;;;;18.62;76.49;100313.34;331417;29;17744;-92
2023/09/30 00:54:24;;;;;;;0.77;0.63;;;;;;;18.58;76.76;100306.56;334627;29;4508;-93
2023/09/30 00:54:37;;;;;;;1.70;0.70;;;;;;;18.56;76.88;100308.44;331599;29;17379;-93
2023/09/30 00:54:51;;;;;;;1.95;0.80;;;;;;;18.60;76.66;100312.59;331802;28;16651;-93
2023/09/30 00:55:05;;;;;;;1.00;0.65;;;;;;;18.61;76.65;100309.00;330418;29;16607;-92
2023/09/30 00:55:19;;;;;;;0.65;0.65;;;;;;;18.64;76.37;100306.22;328561;29;4527;-93
2023/09/30 00:55:31;;;;;;;0.88;0.82;;;;;;;18.67;76.32;100311.31;329946;29;16794;-92
2023/09/30 00:55:44;;;;;;;1.10;0.90;;;;;;;18.69;76.50;100308.59;331787;29;16200;-93
2023/09/30 00:55:57;;;;;;;3.10;0.70;;;;;;;18.70;76.27;100307.66;333924;29;4659;-93
2023/09/30 00:56:10;;;;;;;3.22;0.68;;;;;;;18.70;76.16;100308.50;330914;29;5025;-93
2023/09/30 00:56:25;;;;;;;1.20;0.63;;;;;;;18.71;76.40;100310.22;333179;29;4532;-93
2023/09/30 00:56:45;;;;;;;1.10;0.80;;;;;;;18.70;76.32;100311.13;328511;29;16326;-92
2023/09/30 00:57:00;;;;;;;0.93;0.65;;;;;;;18.69;76.46;100314.72;334403;29;17237;-92
2023/09/30 00:57:13;;;;;;;0.90;0.70;;;;;;;18.71;76.33;100306.72;332022;29;16999;-92
2023/09/30 00:57:25;;;;;;;0.73;0.70;;;;;;;18.71;76.64;100306.72;333010;28;16023;-93
2023/09/30 00:57:39;;;;;;;0.60;0.60;;;;;;;18.71;76.37;100307.59;337388;28;4511;-92
2023/09/30 00:57:51;;;;;;;0.80;0.70;;;;;;;18.75;76.40;100309.09;333771;28;16521;-93
2023/09/30 00:58:04;;;;;;;1.17;0.65;;;;;;;18.75;76.07;100309.09;335983;28;4529;-93
2023/09/30 00:58:16;;;;;;;1.70;0.70;;;;;;;18.76;76.08;100310.78;331974;29;16351;-92
2023/09/30 00:58:30;;;;;;;1.48;0.70;;;;;;;18.80;76.10;100308.88;334257;29;4558;-92
2023/09/30 00:58:43;;;;;;;1.42;0.70;;;;;;;18.81;76.18;100312.34;331763;29;16798;-92
2023/09/30 00:58:55;;;;;;;1.40;0.70;;;;;;;18.82;76.07;100308.78;331834;29;16423;-92
2023/09/30 00:59:08;;;;;;;1.50;0.73;;;;;;;18.84;76.04;100312.19;335595;29;4694;-92
2023/09/30 00:59:20;;;;;;;1.15;0.70;;;;;;;18.85;75.98;100313.88;333158;28;4470;-92
2023/09/30 00:59:32;;;;;;;1.92;0.70;;;;;;;18.83;75.97;100307.84;329975;29;4514;-93
2023/09/30 00:59:44;;;;;;;2.13;0.70;;;;;;;18.81;76.03;100307.09;331350;29;17378;-93
2023/09/30 00:59:57;;;;;;;1.77;0.60;;;;;;;18.82;76.40;100308.78;332291;29;4526;-92
2023/09/30 01:00:12;;;;;;;1.85;0.63;;;;;;;18.83;75.87;100310.47;328153;29;16534;-92